Time;durP1;ratioP1;P1;durP2;ratioP2;P2;SDS_P1;SDS_P2;PMS_P1;PMS_P2;Temp;Humidity;BMP_temperature;BMP_pressure;BME280_temperature;BME280_humidity;BME280_pressure;Samples;Min_cycle;Max_cycle;Signal;HPM_P1;HPM_P2
2023/07/19 00:01:09;;;;;;;8.55;7.75;;;17.90;99.90;;;18.68;100.00;97687.16;10366665;28;20227;-79
2023/07/19 00:06:13;;;;;;;10.13;7.25;;;17.80;99.90;;;18.73;100.00;97685.56;10373606;28;20218;-80
2023/07/19 00:11:16;;;;;;;7.35;6.65;;;17.80;99.90;;;18.59;100.00;97684.38;10371032;28;20574;-79
2023/07/19 00:16:21;;;;;;;7.80;7.10;;;17.70;99.90;;;18.51;100.00;97680.72;10364566;28;20258;-81
2023/07/19 00:21:24;;;;;;;8.68;7.88;;;17.70;99.90;;;18.44;100.00;97665.06;10370956;28;20310;-81
2023/07/19 00:26:28;;;;;;;8.90;7.15;;;17.60;99.90;;;18.48;100.00;97665.13;10367719;28;20260;-81
2023/07/19 00:31:32;;;;;;;8.93;8.02;;;17.60;99.90;;;18.44;100.00;97665.06;10369831;28;20725;-80
2023/07/19 00:36:36;;;;;;;8.98;7.97;;;17.60;99.90;;;18.42;100.00;97658.09;10370359;28;20222;-81
2023/07/19 00:41:39;;;;;;;8.00;7.20;;;17.50;99.90;;;18.22;100.00;97666.25;10368172;28;20286;-81
2023/07/19 00:46:44;;;;;;;8.07;7.38;;;17.40;99.90;;;18.17;100.00;97670.47;10370707;28;20210;-82
2023/07/19 00:51:48;;;;;;;8.38;7.57;;;17.30;99.90;;;18.04;100.00;97673.59;10374057;28;20226;-81
2023/07/19 00:56:51;;;;;;;8.57;7.72;;;17.20;99.90;;;18.00;100.00;97672.66;10370592;28;20651;-80
2023/07/19 01:01:56;;;;;;;9.55;8.55;;;17.20;99.90;;;17.97;100.00;97672.59;10365744;28;20226;-80
2023/07/19 01:06:59;;;;;;;8.68;7.88;;;17.20;99.90;;;18.01;100.00;97653.69;10367204;28;20229;-80
2023/07/19 01:12:03;;;;;;;8.32;7.50;;;17.20;99.90;;;17.92;100.00;97658.66;10364719;28;20699;-81
2023/07/19 01:17:07;;;;;;;8.50;7.70;;;17.10;99.90;;;17.95;100.00;97660.44;10372424;28;20313;-81
2023/07/19 01:22:10;;;;;;;8.55;7.65;;;17.10;99.90;;;17.84;100.00;97654.13;10373381;28;20290;-81
2023/07/19 01:27:15;;;;;;;8.02;7.22;;;17.10;99.90;;;17.88;100.00;97659.41;10370544;28;20234;-81
2023/07/19 01:32:26;;;;;;;8.85;7.97;;;17.00;99.90;;;17.76;100.00;97661.66;10362652;28;20301;-81
2023/07/19 01:37:29;;;;;;;7.50;6.80;;;17.00;99.90;;;17.92;100.00;97671.59;10363955;28;20230;-80
2023/07/19 01:42:34;;;;;;;7.95;7.15;;;17.10;99.90;;;17.92;100.00;97676.75;10362917;28;20227;-82
2023/07/19 01:47:37;;;;;;;7.78;7.13;;;17.10;99.90;;;18.02;100.00;97678.72;10368228;28;20214;-81
2023/07/19 01:52:41;;;;;;;8.73;7.72;;;17.10;99.90;;;17.93;100.00;97670.72;10364513;28;20266;-81
2023/07/19 01:57:45;;;;;;;9.85;8.18;;;17.10;99.90;;;17.92;100.00;97675.88;10367687;28;20222;-80
2023/07/19 02:02:49;;;;;;;8.60;7.80;;;17.10;99.90;;;17.96;100.00;97660.47;10365255;28;20222;-80
2023/07/19 02:07:52;;;;;;;8.20;7.35;;;17.10;99.90;;;17.98;100.00;97656.22;10362307;28;20641;-80
2023/07/19 02:12:56;;;;;;;10.32;8.25;;;17.10;99.90;;;17.91;100.00;97669.84;10367824;28;20373;-81
2023/07/19 02:17:59;;;;;;;8.18;7.38;;;17.00;99.90;;;17.84;100.00;97665.34;10365353;28;20694;-82
2023/07/19 02:23:03;;;;;;;8.60;7.78;;;17.00;99.90;;;17.76;100.00;97682.34;10367632;28;20237;-82
2023/07/19 02:28:08;;;;;;;7.53;6.80;;;16.90;99.90;;;17.73;100.00;97685.72;10363417;28;20221;-80
2023/07/19 02:33:12;;;;;;;8.00;7.18;;;16.80;99.90;;;17.68;100.00;97686.41;10374899;28;20234;-82
2023/07/19 02:38:15;;;;;;;8.05;7.35;;;16.80;99.90;;;17.80;100.00;97691.97;10371901;28;20219;-81
2023/07/19 02:43:19;;;;;;;8.40;7.68;;;17.00;99.90;;;17.87;100.00;97683.50;10370006;28;20309;-81
2023/07/19 02:48:23;;;;;;;8.52;7.68;;;17.00;99.90;;;17.94;100.00;97681.94;10371948;28;20245;-82
2023/07/19 02:53:26;;;;;;;8.25;7.45;;;17.10;99.90;;;17.99;100.00;97678.63;10373360;28;20337;-82
2023/07/19 02:58:31;;;;;;;7.25;6.60;;;17.10;99.90;;;17.97;100.00;97682.94;10374745;28;20341;-81
2023/07/19 03:03:34;;;;;;;7.95;7.15;;;17.10;99.90;;;18.01;100.00;97689.03;10372906;28;20312;-83
2023/07/19 03:08:37;;;;;;;8.20;7.40;;;17.10;99.90;;;17.90;100.00;97699.09;10370501;28;20219;-81
2023/07/19 03:13:42;;;;;;;8.13;7.28;;;17.00;99.90;;;17.67;100.00;97692.44;10364430;28;20301;-81
2023/07/19 03:18:45;;;;;;;8.07;7.38;;;16.80;99.90;;;17.70;100.00;97695.09;10367749;28;20223;-81
2023/07/19 03:23:49;;;;;;;8.38;7.57;;;16.80;99.90;;;17.75;100.00;97706.44;10363701;28;20289;-80
2023/07/19 03:28:53;;;;;;;7.57;6.88;;;16.90;99.90;;;17.77;100.00;97709.97;10369465;28;20278;-81
2023/07/19 03:33:56;;;;;;;8.15;6.93;;;16.90;99.90;;;17.82;100.00;97707.50;10363263;28;20242;-80
2023/07/19 03:39:00;;;;;;;7.78;7.00;;;16.90;99.90;;;17.81;100.00;97722.16;10365999;28;20222;-81
2023/07/19 03:44:05;;;;;;;8.73;7.28;;;16.90;99.90;;;17.82;100.00;97712.69;10363607;28;20888;-81
2023/07/19 03:49:08;;;;;;;8.30;7.43;;;17.00;99.90;;;17.78;100.00;97725.53;10360780;28;20234;-81
2023/07/19 03:54:11;;;;;;;7.13;6.53;;;16.90;99.90;;;17.75;100.00;97727.13;10372118;28;20232;-81
2023/07/19 03:59:17;;;;;;;7.57;6.85;;;16.90;99.90;;;17.76;100.00;97728.88;10368913;28;20215;-80
2023/07/19 04:04:20;;;;;;;8.07;7.32;;;16.90;99.90;;;17.69;100.00;97737.31;10370628;28;20276;-80
2023/07/19 04:09:24;;;;;;;8.07;7.30;;;16.80;99.90;;;17.63;100.00;97731.97;10364028;28;20694;-80
2023/07/19 04:14:28;;;;;;;8.75;7.95;;;16.80;99.90;;;17.68;100.00;97738.13;10368478;28;20649;-81
2023/07/19 04:19:32;;;;;;;8.98;8.00;;;16.80;99.90;;;17.76;100.00;97727.16;10369550;28;20253;-81
2023/07/19 04:24:35;;;;;;;8.20;7.22;;;16.90;99.90;;;17.85;100.00;97731.72;10369244;28;20249;-81
2023/07/19 04:29:39;;;;;;;8.45;7.65;;;17.00;99.90;;;17.97;100.00;97733.75;10366089;28;20246;-80
2023/07/19 04:34:43;;;;;;;8.25;7.47;;;17.10;99.90;;;18.06;100.00;97727.97;10377841;28;20314;-80
2023/07/19 04:39:46;;;;;;;7.63;6.93;;;17.20;99.90;;;18.08;100.00;97732.31;10365116;28;20219;-81
2023/07/19 04:44:51;;;;;;;7.03;6.32;;;17.20;99.90;;;18.15;100.00;97726.47;10356822;28;20593;-81
2023/07/19 04:49:54;;;;;;;7.85;7.18;;;17.20;99.90;;;18.18;100.00;97733.44;10362314;28;20237;-81
2023/07/19 04:54:57;;;;;;;7.90;7.07;;;17.30;99.90;;;18.29;100.00;97742.34;10352500;28;20273;-83
2023/07/19 05:00:04;;;;;;;7.53;6.82;;;17.40;99.90;;;18.45;100.00;97730.63;10361187;28;20257;-83
2023/07/19 05:05:09;;;;;;;7.35;6.65;;;17.50;99.90;;;18.61;100.00;97727.59;10362916;28;20217;-82
2023/07/19 05:10:12;;;;;;;7.57;6.88;;;17.70;99.90;;;19.12;100.00;97713.19;10371415;28;20222;-83
2023/07/19 05:15:17;;;;;;;7.32;6.63;;;18.20;99.90;;;19.73;98.57;97719.63;10362614;28;20238;-82
2023/07/19 05:20:21;;;;;;;7.05;6.47;;;18.60;99.90;;;20.28;92.12;97716.25;10361833;28;20232;-81
2023/07/19 05:25:24;;;;;;;7.00;6.40;;;19.00;99.90;;;20.85;90.34;97710.22;10367401;28;20309;-79
2023/07/19 05:30:29;;;;;;;6.88;6.15;;;19.60;99.90;;;22.00;85.21;97702.06;10357122;28;20228;-81
2023/07/19 05:35:32;;;;;;;6.75;5.82;;;20.90;99.90;;;23.11;78.16;97698.56;10358916;28;20317;-79
2023/07/19 05:40:35;;;;;;;6.32;5.68;;;21.70;99.90;;;23.84;72.66;97712.78;10364787;28;20226;-80
2023/07/19 05:45:40;;;;;;;6.40;5.80;;;22.40;99.90;;;24.34;70.59;97724.13;10364956;28;20232;-82
2023/07/19 05:50:43;;;;;;;6.25;5.75;;;22.40;99.90;;;24.65;69.00;97723.28;10355706;28;20667;-81
2023/07/19 05:55:47;;;;;;;6.60;5.70;;;22.70;99.90;;;25.17;66.81;97720.56;10358057;28;20611;-79
2023/07/19 06:00:51;;;;;;;7.60;6.50;;;23.00;99.90;;;25.15;66.09;97722.34;10357639;28;20222;-80
2023/07/19 06:05:55;;;;;;;7.25;6.43;;;23.20;99.90;;;25.55;69.55;97722.19;10371883;28;20233;-79
2023/07/19 06:10:58;;;;;;;8.88;7.22;;;23.50;99.90;;;25.89;65.85;97721.16;10373873;28;20230;-81
2023/07/19 06:16:03;;;;;;;7.20;6.50;;;23.90;99.90;;;26.69;62.77;97726.69;10370800;28;20344;-81
2023/07/19 06:21:06;;;;;;;7.38;6.68;;;24.30;99.90;;;27.28;60.42;97732.25;10366573;28;20225;-80
2023/07/19 06:26:10;;;;;;;7.13;6.40;;;24.70;99.90;;;27.63;58.34;97734.41;10366259;28;20222;-80
2023/07/19 06:31:15;;;;;;;6.75;5.82;;;25.10;99.90;;;28.13;56.41;97740.78;10369288;28;20321;-80
2023/07/19 06:36:18;;;;;;;7.47;6.78;;;25.40;99.90;;;28.46;55.69;97744.66;10367624;28;20250;-80
2023/07/19 06:41:22;;;;;;;8.10;6.40;;;25.70;99.90;;;28.95;51.53;97737.69;10372093;28;20232;-80
2023/07/19 06:46:27;;;;;;;6.50;5.88;;;26.20;99.90;;;29.35;51.33;97739.59;10367039;28;20763;-82
2023/07/19 06:51:30;;;;;;;8.85;6.60;;;26.40;99.90;;;29.94;48.13;97747.16;10366771;28;20731;-82
2023/07/19 06:56:34;;;;;;;8.68;6.57;;;27.00;99.90;;;30.25;47.87;97742.09;10370187;28;20233;-84
2023/07/19 07:01:39;;;;;;;7.80;5.82;;;27.50;99.90;;;30.46;47.38;97744.19;10359823;28;20653;-80
2023/07/19 07:06:42;;;;;;;6.80;5.60;;;27.70;99.90;;;30.80;45.53;97743.41;10367693;28;20217;-81
2023/07/19 07:11:45;;;;;;;6.50;5.50;;;28.20;99.20;;;31.27;44.97;97746.53;10369200;28;20651;-83
2023/07/19 07:16:50;;;;;;;7.60;5.43;;;28.60;98.50;;;31.55;43.20;97748.41;10362227;28;20226;-80
2023/07/19 07:21:53;;;;;;;6.50;4.97;;;28.80;96.40;;;31.70;41.01;97750.59;10369636;28;20339;-82
2023/07/19 07:26:56;;;;;;;8.13;5.05;;;29.00;94.10;;;31.45;42.07;97745.19;10366448;28;20220;-81
2023/07/19 07:32:01;;;;;;;5.80;5.20;;;28.90;94.30;;;31.55;41.15;97743.13;10363058;28;20272;-80
2023/07/19 07:37:05;;;;;;;6.00;4.60;;;29.20;93.10;;;31.97;39.11;97763.97;10372973;28;20668;-81
2023/07/19 07:42:09;;;;;;;7.53;5.28;;;29.70;91.40;;;32.14;39.16;97748.44;10369197;28;20289;-81
2023/07/19 07:47:14;;;;;;;6.57;4.50;;;29.80;91.00;;;32.19;38.06;97759.72;10366426;28;20339;-81
2023/07/19 07:52:17;;;;;;;5.20;4.70;;;29.80;90.10;;;32.35;38.12;97754.81;10370189;28;20566;-81
2023/07/19 07:57:21;;;;;;;5.25;4.75;;;30.10;89.50;;;32.77;37.34;97750.84;10365060;28;20312;-83
2023/07/19 08:02:25;;;;;;;6.43;4.57;;;30.20;89.00;;;33.12;36.74;97753.16;10359193;28;20237;-81
2023/07/19 08:07:29;;;;;;;5.68;4.70;;;30.40;87.60;;;33.10;36.87;97754.13;10363471;28;20230;-82
2023/07/19 08:12:32;;;;;;;6.65;5.07;;;30.30;87.50;;;33.13;36.73;97744.28;10361509;28;20236;-81
2023/07/19 08:17:37;;;;;;;6.25;4.70;;;30.50;87.60;;;33.82;35.75;97738.25;10368672;28;20309;-80
2023/07/19 08:22:40;;;;;;;5.72;4.20;;;31.00;85.40;;;33.32;36.28;97735.69;10360014;28;20240;-82
2023/07/19 08:27:44;;;;;;;6.88;4.70;;;31.20;83.20;;;32.94;36.16;97732.59;10363528;28;20649;-80
2023/07/19 08:32:49;;;;;;;5.22;4.40;;;31.20;82.10;;;33.00;35.79;97727.13;10373575;28;20248;-80
2023/07/19 08:37:53;;;;;;;5.05;4.53;;;31.30;81.40;;;32.34;37.66;97721.34;10371561;28;20232;-82
2023/07/19 08:42:56;;;;;;;6.65;4.45;;;30.90;83.00;;;32.46;37.51;97717.47;10367704;28;20256;-81
2023/07/19 08:48:01;;;;;;;4.90;3.75;;;31.20;82.00;;;32.18;34.63;97717.44;10376571;28;20249;-80
2023/07/19 08:53:05;;;;;;;6.43;3.60;;;31.10;76.60;;;32.14;35.03;97713.19;10362529;28;20230;-81
2023/07/19 08:58:08;;;;;;;3.92;3.22;;;31.00;76.20;;;32.26;33.47;97713.66;10361333;28;20233;-82
2023/07/19 09:03:14;;;;;;;5.30;3.40;;;31.20;73.40;;;32.29;34.36;97702.97;10370736;28;20238;-82
2023/07/19 09:08:17;;;;;;;5.43;3.80;;;31.40;74.10;;;32.50;34.13;97701.41;10360502;28;20341;-80
2023/07/19 09:13:21;;;;;;;6.28;3.92;;;31.80;73.90;;;32.49;34.66;97694.41;10367512;28;20246;-81
2023/07/19 09:18:29;;;;;;;5.45;3.72;;;31.40;74.00;;;32.39;33.63;97687.63;10370225;28;20249;-80
2023/07/19 09:23:36;;;;;;;4.43;3.70;;;31.60;72.00;;;32.10;34.93;97683.31;10362020;28;20253;-80
2023/07/19 09:28:40;;;;;;;4.97;4.00;;;31.30;74.20;;;32.00;35.20;97682.75;10355487;28;20703;-80
2023/07/19 09:33:45;;;;;;;5.78;4.00;;;31.30;73.80;;;32.06;35.13;97679.91;10362684;28;20429;-80
2023/07/19 09:38:48;;;;;;;5.25;3.97;;;31.30;74.00;;;32.36;34.34;97678.94;10365801;28;20221;-81
2023/07/19 09:43:54;;;;;;;6.85;3.65;;;31.80;72.50;;;31.70;32.11;97671.31;10369168;28;20401;-82
2023/07/19 09:48:58;;;;;;;5.45;3.38;;;31.20;68.90;;;31.02;32.80;97672.41;10374080;28;20217;-80
2023/07/19 09:54:06;;;;;;;6.68;3.15;;;30.30;69.10;;;31.23;32.65;97670.91;10372098;28;20221;-80
2023/07/19 09:59:13;;;;;;;4.45;3.30;;;30.40;68.60;;;31.87;31.47;97669.00;10366204;28;20273;-79
2023/07/19 10:04:26;;;;;;;3.65;3.20;;;31.30;66.20;;;31.93;31.84;97672.41;10369289;28;20821;-81
2023/07/19 10:09:37;;;;;;;3.72;3.30;;;31.30;66.90;;;31.96;31.24;97669.66;10364905;28;20616;-79
2023/07/19 10:14:40;;;;;;;4.05;2.97;;;31.20;66.10;;;31.59;31.88;97665.47;10361790;28;20214;-79
2023/07/19 10:20:12;;;;;;;4.82;3.05;;;30.60;66.90;;;31.00;34.01;97662.78;10353275;28;20254;-84
2023/07/19 10:25:21;;;;;;;3.67;2.88;;;30.00;68.90;;;31.28;32.06;97663.75;10372433;28;20725;-81
2023/07/19 10:30:49;;;;;;;5.13;3.00;;;30.30;66.60;;;31.54;31.04;97659.50;10365732;28;20234;-82
2023/07/19 10:35:55;;;;;;;3.80;3.05;;;30.70;64.50;;;31.50;30.84;97657.84;10371925;28;20332;-81
2023/07/19 10:41:01;;;;;;;3.97;2.80;;;30.30;65.30;;;31.26;30.31;97652.34;10357990;28;20254;-82
2023/07/19 10:46:06;;;;;;;3.38;2.55;;;30.20;63.90;;;31.44;29.06;97647.44;10371006;28;20240;-80
2023/07/19 10:51:11;;;;;;;2.58;2.38;;;30.70;61.80;;;31.42;29.05;97645.72;10368754;28;20226;-83
2023/07/19 10:56:16;;;;;;;3.92;2.83;;;30.50;61.10;;;31.52;27.92;97643.66;10368075;28;20238;-80
2023/07/19 11:01:21;;;;;;;4.60;2.22;;;30.70;58.80;;;31.79;28.26;97639.31;10367320;28;20241;-79
2023/07/19 11:06:26;;;;;;;5.95;2.40;;;31.00;59.70;;;32.04;28.27;97634.13;10366158;28;20229;-81
2023/07/19 11:11:30;;;;;;;3.08;2.63;;;31.20;59.50;;;31.73;27.78;97642.13;10370300;28;20236;-82
2023/07/19 11:16:34;;;;;;;3.33;2.58;;;31.10;58.50;;;31.91;27.56;97635.44;10367435;28;20233;-81
2023/07/19 11:21:44;;;;;;;2.63;2.30;;;31.10;58.10;;;31.97;26.95;97631.75;10362592;28;20240;-83
2023/07/19 11:26:56;;;;;;;4.88;2.50;;;31.20;57.70;;;31.95;27.14;97631.78;10373968;28;20218;-81
2023/07/19 11:32:18;;;;;;;2.97;2.50;;;31.30;57.10;;;31.76;27.12;97623.53;10366242;28;20232;-82
2023/07/19 11:37:26;;;;;;;4.47;2.63;;;31.00;57.60;;;31.58;26.59;97627.63;10370845;28;20233;-83
2023/07/19 11:42:43;;;;;;;2.80;2.33;;;30.70;57.10;;;31.51;27.34;97618.16;10371365;28;20257;-82
2023/07/19 11:47:49;;;;;;;2.83;2.00;;;30.70;57.80;;;31.67;27.48;97607.97;10363730;28;20220;-80
2023/07/19 11:52:59;;;;;;;4.78;2.40;;;30.70;57.90;;;31.11;27.19;97607.91;10369576;28;20231;-81
2023/07/19 11:58:03;;;;;;;4.45;2.40;;;30.20;57.70;;;30.97;27.90;97595.09;10365666;28;20280;-81
2023/07/19 12:03:06;;;;;;;5.68;2.45;;;30.00;57.80;;;31.22;27.36;97584.69;10355307;28;20323;-83
2023/07/19 12:08:11;;;;;;;3.33;2.00;;;30.20;57.60;;;30.90;28.17;97573.25;10364168;28;20233;-81
2023/07/19 12:13:16;;;;;;;2.85;2.28;;;29.90;58.30;;;31.36;26.80;97569.31;10369470;28;20250;-82
2023/07/19 12:18:20;;;;;;;2.90;2.40;;;30.40;57.10;;;31.40;27.42;97556.84;10363461;28;20304;-81
2023/07/19 12:23:25;;;;;;;3.72;2.25;;;30.60;57.60;;;31.34;27.48;97555.22;10369542;28;20238;-80
2023/07/19 12:28:31;;;;;;;2.47;2.28;;;30.30;58.00;;;31.45;27.89;97543.47;10363799;28;20218;-82
2023/07/19 12:33:35;;;;;;;2.50;2.10;;;30.30;58.50;;;31.16;27.54;97537.28;10360471;28;20340;-83
2023/07/19 12:38:39;;;;;;;3.33;2.10;;;30.20;57.60;;;31.18;28.22;97524.91;10370002;28;20245;-82
2023/07/19 12:43:43;;;;;;;3.72;2.80;;;30.20;58.00;;;31.08;28.68;97523.47;10367446;28;20231;-81
2023/07/19 12:48:48;;;;;;;3.08;2.42;;;30.10;58.60;;;31.00;28.63;97514.94;10369192;28;20245;-80
2023/07/19 12:53:53;;;;;;;3.00;2.25;;;30.00;58.50;;;30.71;29.58;97503.44;10370968;28;20250;-81
2023/07/19 12:58:56;;;;;;;3.17;2.40;;;29.70;59.20;;;30.83;30.36;97503.09;10355377;28;20286;-82
2023/07/19 13:03:59;;;;;;;2.90;2.10;;;30.00;60.90;;;31.17;28.92;97497.66;10362934;28;20312;-81
2023/07/19 13:09:06;;;;;;;3.65;2.50;;;30.20;59.50;;;31.31;28.88;97493.72;10368813;28;20218;-80
2023/07/19 13:14:12;;;;;;;3.58;2.15;;;30.40;58.70;;;31.12;28.75;97493.41;10358009;28;20322;-83
2023/07/19 13:19:16;;;;;;;4.53;2.45;;;30.10;59.00;;;31.06;28.91;97489.19;10362735;28;20321;-83
2023/07/19 13:24:20;;;;;;;3.22;2.30;;;30.10;59.00;;;31.02;29.54;97498.13;10366113;28;20317;-81
2023/07/19 13:29:23;;;;;;;2.30;2.08;;;29.90;59.80;;;30.77;29.88;97484.78;10365534;28;20651;-81
2023/07/19 13:34:29;;;;;;;3.20;2.42;;;29.80;60.00;;;30.83;31.48;97487.25;10367470;28;20233;-81
2023/07/19 13:39:34;;;;;;;4.03;2.70;;;29.90;62.60;;;30.95;30.92;97488.66;10371829;28;20226;-85
2023/07/19 13:44:38;;;;;;;3.45;2.42;;;29.80;62.40;;;30.77;31.61;97487.41;10356529;28;20248;-80
2023/07/19 13:49:41;;;;;;;4.10;2.30;;;29.70;63.20;;;30.73;30.32;97475.19;10361370;28;20214;-81
2023/07/19 13:54:46;;;;;;;8.48;2.60;;;29.80;60.70;;;31.27;30.31;97477.06;10366012;28;20601;-80
2023/07/19 13:59:49;;;;;;;7.38;2.75;;;30.10;61.20;;;31.53;29.27;97472.75;10368355;28;20492;-82
2023/07/19 14:04:52;;;;;;;6.85;2.65;;;30.40;60.00;;;31.48;29.71;97459.72;10364364;28;20704;-81
2023/07/19 14:09:59;;;;;;;2.88;2.20;;;30.30;60.10;;;31.36;29.76;97445.13;10366718;28;20233;-82
2023/07/19 14:15:02;;;;;;;3.10;2.80;;;30.30;60.00;;;31.57;29.97;97425.03;10356773;28;20272;-83
2023/07/19 14:20:08;;;;;;;4.20;2.90;;;30.60;61.10;;;31.64;30.33;97429.19;10360420;28;20268;-81
2023/07/19 14:25:14;;;;;;;4.25;3.40;;;30.50;61.30;;;31.38;30.80;97448.56;10362669;28;20215;-82
2023/07/19 14:30:17;;;;;;;3.13;2.83;;;30.40;61.90;;;30.61;32.05;97459.72;10367583;28;20225;-79
2023/07/19 14:35:20;;;;;;;3.55;2.90;;;29.70;63.10;;;30.49;32.72;97456.53;10352207;28;20240;-78
2023/07/19 14:40:25;;;;;;;3.63;2.95;;;29.50;65.00;;;30.51;33.24;97462.66;10350546;28;20336;-78
2023/07/19 14:45:29;;;;;;;4.10;2.70;;;29.40;65.20;;;30.01;34.25;97464.03;10347511;28;21223;-77
2023/07/19 14:50:32;;;;;;;3.28;2.97;;;29.10;67.00;;;29.70;35.03;97469.25;10352622;28;20227;-78
2023/07/19 14:55:36;;;;;;;5.68;3.03;;;28.70;68.60;;;29.61;36.27;97473.81;10349987;28;20321;-78
2023/07/19 15:00:40;;;;;;;3.38;2.88;;;28.60;70.50;;;29.69;36.72;97478.06;10349019;28;20230;-77
2023/07/19 15:05:43;;;;;;;3.95;3.10;;;28.70;71.30;;;29.25;37.37;97477.38;10358710;28;20218;-79
2023/07/19 15:10:50;;;;;;;5.72;3.00;;;28.30;70.80;;;29.08;38.67;97473.34;10361462;28;20244;-77
2023/07/19 15:15:54;;;;;;;3.55;3.20;;;28.10;73.40;;;29.15;38.59;97482.81;10349750;28;20689;-77
2023/07/19 15:21:01;;;;;;;4.68;3.50;;;28.20;73.80;;;29.32;38.14;97465.78;10350806;28;20222;-78
2023/07/19 15:26:06;;;;;;;5.65;3.47;;;28.30;73.90;;;29.36;38.83;97454.25;10351550;28;20308;-76
2023/07/19 15:31:19;;;;;;;4.28;3.30;;;28.40;74.00;;;29.42;37.65;97456.75;10352740;28;20226;-76
2023/07/19 15:36:23;;;;;;;5.97;4.30;;;28.50;73.10;;;29.24;38.59;97459.81;10354320;28;20321;-76
2023/07/19 15:41:28;;;;;;;5.70;3.47;;;28.30;73.40;;;29.19;38.40;97452.91;10353812;28;20225;-77
2023/07/19 15:46:31;;;;;;;4.28;3.70;;;28.20;74.10;;;29.44;38.32;97447.03;10350300;28;20300;-77
2023/07/19 15:51:39;;;;;;;4.05;3.63;;;28.40;74.10;;;29.25;38.73;97436.09;10353299;28;20234;-77
2023/07/19 15:56:43;;;;;;;6.55;3.58;;;28.30;74.70;;;29.17;38.24;97433.63;10350311;28;20226;-76
2023/07/19 16:01:46;;;;;;;3.60;3.22;;;28.20;74.30;;;29.05;38.67;97430.44;10356016;28;20232;-77
2023/07/19 16:06:50;;;;;;;5.55;3.28;;;28.10;73.50;;;29.25;38.05;97432.59;10352369;28;20229;-76
2023/07/19 16:11:54;;;;;;;6.90;3.60;;;28.20;73.80;;;29.26;34.73;97431.69;10341598;28;20313;-77
2023/07/19 16:16:58;;;;;;;4.28;3.88;;;28.40;68.10;;;29.24;33.59;97438.75;10362528;28;20236;-76
2023/07/19 16:22:03;;;;;;;4.78;3.67;;;28.30;65.70;;;29.23;33.54;97416.81;10352204;28;20234;-76
2023/07/19 16:27:09;;;;;;;4.85;4.03;;;28.40;65.70;;;29.28;33.30;97425.47;10358642;28;20230;-76
2023/07/19 16:32:12;;;;;;;5.00;3.92;;;28.40;65.00;;;29.22;33.53;97432.66;10366671;28;20232;-76
2023/07/19 16:37:15;;;;;;;4.40;4.00;;;28.40;64.60;;;28.90;33.69;97428.97;10360979;28;20252;-76
2023/07/19 16:42:20;;;;;;;3.72;3.40;;;28.10;65.00;;;28.91;33.45;97433.38;10349663;28;20233;-77
2023/07/19 16:47:23;;;;;;;6.25;3.90;;;28.00;65.30;;;28.82;34.38;97423.91;10336262;28;20232;-77
2023/07/19 16:52:26;;;;;;;4.32;3.55;;;27.90;66.10;;;28.74;34.88;97428.47;10346298;28;20230;-75
2023/07/19 16:57:31;;;;;;;6.07;3.88;;;27.80;66.90;;;28.69;34.30;97436.47;10345933;28;20695;-76
2023/07/19 17:02:34;;;;;;;5.40;4.00;;;27.70;67.00;;;28.60;34.59;97426.16;10351100;28;20749;-76
2023/07/19 17:07:37;;;;;;;3.70;3.40;;;27.70;66.80;;;28.70;34.99;97437.31;10348182;28;20785;-77
2023/07/19 17:12:41;;;;;;;4.70;3.70;;;27.70;68.10;;;28.59;34.60;97441.94;10358672;28;20233;-76
2023/07/19 17:17:45;;;;;;;3.70;3.40;;;27.70;66.30;;;28.39;34.04;97450.25;10364248;28;20218;-76
2023/07/19 17:22:48;;;;;;;3.78;3.47;;;27.50;65.90;;;28.15;35.22;97459.47;10351675;28;20221;-76
2023/07/19 17:27:53;;;;;;;4.47;3.70;;;27.20;66.70;;;28.12;35.47;97455.16;10359381;28;20785;-76
2023/07/19 17:32:56;;;;;;;4.38;3.28;;;27.20;67.40;;;28.03;35.78;97460.59;10351678;28;20249;-77
2023/07/19 17:37:59;;;;;;;4.70;3.58;;;27.10;68.10;;;27.84;36.35;97473.19;10339042;28;20226;-74
2023/07/19 17:43:04;;;;;;;8.35;3.30;;;27.00;69.30;;;27.65;37.16;97456.88;10331902;28;20253;-76
2023/07/19 17:48:07;;;;;;;6.35;3.47;;;26.70;69.80;;;27.38;37.81;97463.44;10327266;28;20234;-76
2023/07/19 17:53:11;;;;;;;4.85;3.75;;;26.50;71.00;;;27.25;38.42;97468.03;10347851;28;20296;-76
2023/07/19 17:58:16;;;;;;;5.25;3.72;;;26.40;71.80;;;27.25;38.97;97475.91;10349908;28;20229;-77
2023/07/19 18:03:19;;;;;;;4.40;3.15;;;26.30;73.00;;;27.21;39.25;97466.34;10345294;28;20256;-78
2023/07/19 18:08:22;;;;;;;4.88;3.47;;;26.20;73.80;;;27.11;39.57;97467.34;10347516;28;20236;-76
2023/07/19 18:13:31;;;;;;;3.97;3.40;;;26.10;74.30;;;26.93;40.23;97479.84;10345663;28;20285;-76
2023/07/19 18:18:34;;;;;;;4.25;3.53;;;25.90;74.90;;;26.78;39.98;97481.81;10346911;28;20221;-78
2023/07/19 18:23:38;;;;;;;4.68;2.75;;;25.80;74.50;;;26.91;39.09;97481.63;10350344;28;20312;-78
2023/07/19 18:28:44;;;;;;;3.85;3.03;;;25.90;73.40;;;26.66;39.97;97490.72;10350045;28;20240;-78
2023/07/19 18:33:47;;;;;;;3.78;2.97;;;25.70;74.20;;;26.50;40.40;97496.16;10352266;28;20233;-77
2023/07/19 18:38:50;;;;;;;5.03;3.42;;;25.60;75.40;;;26.42;40.57;97503.22;10350691;28;20219;-77
2023/07/19 18:43:55;;;;;;;6.15;3.10;;;25.40;75.30;;;26.26;40.51;97504.25;10355195;28;20229;-76
2023/07/19 18:48:58;;;;;;;3.78;3.03;;;25.30;75.60;;;26.14;41.14;97501.78;10352233;28;20938;-77
2023/07/19 18:54:01;;;;;;;4.90;3.38;;;25.20;75.80;;;26.01;41.54;97507.16;10347642;28;20609;-76
2023/07/19 18:59:06;;;;;;;3.95;2.97;;;25.00;76.20;;;25.88;41.14;97516.00;10351293;28;20286;-77
2023/07/19 19:04:09;;;;;;;3.85;3.03;;;24.90;75.80;;;25.87;41.70;97524.75;10349079;28;20591;-77
2023/07/19 19:09:12;;;;;;;3.50;3.00;;;24.90;76.60;;;25.71;41.44;97523.09;10350926;28;20222;-79
2023/07/19 19:14:18;;;;;;;4.15;2.80;;;24.70;76.80;;;25.48;42.11;97539.88;10351096;28;20745;-77
2023/07/19 19:19:23;;;;;;;4.15;2.88;;;24.50;77.50;;;25.46;42.30;97536.38;10354341;28;20230;-76
2023/07/19 19:24:27;;;;;;;3.13;2.42;;;24.50;77.70;;;25.26;42.73;97540.88;10350692;28;20234;-75
2023/07/19 19:29:31;;;;;;;3.95;2.60;;;24.40;78.50;;;25.18;43.60;97548.78;10353600;28;20219;-77
2023/07/19 19:34:36;;;;;;;3.88;2.72;;;24.20;79.80;;;25.07;43.83;97554.06;10355039;28;20233;-76
2023/07/19 19:39:39;;;;;;;4.82;2.95;;;24.10;80.00;;;24.82;44.36;97561.16;10356884;28;20665;-76
2023/07/19 19:44:44;;;;;;;3.88;3.20;;;23.90;80.70;;;24.70;44.87;97567.31;10352447;28;20224;-76
2023/07/19 19:49:47;;;;;;;4.03;2.90;;;23.80;81.70;;;24.53;45.76;97569.09;10345876;28;20599;-77
2023/07/19 19:54:53;;;;;;;2.90;2.55;;;23.60;83.80;;;24.46;45.84;97575.22;10355816;28;20234;-76
2023/07/19 19:59:58;;;;;;;2.88;2.33;;;23.50;83.40;;;24.33;45.82;97579.56;10350631;28;20234;-76
2023/07/19 20:05:04;;;;;;;3.85;2.65;;;23.40;83.50;;;24.32;45.45;97579.56;10359377;28;20253;-74
2023/07/19 20:10:09;;;;;;;4.15;2.35;;;23.30;83.40;;;24.16;45.63;97590.03;10368107;28;20237;-76
2023/07/19 20:15:17;;;;;;;2.40;2.10;;;23.20;83.20;;;24.11;45.26;97594.41;10371818;28;20298;-76
2023/07/19 20:20:20;;;;;;;4.88;2.38;;;23.20;82.40;;;23.91;45.63;97607.47;10370105;28;20234;-77
2023/07/19 20:25:31;;;;;;;4.43;2.80;;;23.00;82.90;;;23.80;46.03;97602.22;10375638;28;20261;-76
2023/07/19 20:30:58;;;;;;;4.45;2.40;;;22.90;84.00;;;23.72;46.51;97621.38;10374261;28;20237;-76
2023/07/19 20:36:10;;;;;;;3.55;2.50;;;22.80;84.70;;;23.58;47.00;97610.91;10374866;28;20226;-75
2023/07/19 20:41:33;;;;;;;2.30;2.10;;;22.60;85.50;;;23.51;47.14;97620.44;10369531;28;20237;-75
2023/07/19 20:46:38;;;;;;;4.25;2.55;;;22.50;85.70;;;23.35;47.32;97635.22;10358184;28;20233;-76
2023/07/19 20:51:43;;;;;;;6.32;2.40;;;22.50;86.10;;;23.29;47.46;97629.97;10357261;28;20265;-75
2023/07/19 20:56:47;;;;;;;3.83;2.20;;;22.40;85.70;;;23.21;47.61;97629.06;10360579;28;20218;-76
2023/07/19 21:01:53;;;;;;;3.60;2.17;;;22.30;86.00;;;23.10;47.83;97622.94;10356852;28;20234;-75